sensor_id;sensor_type;location;lat;lon;timestamp;P1;durP1;ratioP1;P2;durP2;ratioP2
30420;SDS011;17218;54.070;10.012;2023-07-13T00:02:10;4.57;;;2.97;;
30420;SDS011;17218;54.070;10.012;2023-07-13T00:04:37;4.22;;;2.80;;
30420;SDS011;17218;54.070;10.012;2023-07-13T00:07:04;6.53;;;3.45;;
30420;SDS011;17218;54.070;10.012;2023-07-13T00:09:32;6.63;;;3.10;;
30420;SDS011;17218;54.070;10.012;2023-07-13T00:11:58;9.32;;;3.03;;
30420;SDS011;17218;54.070;10.012;2023-07-13T00:14:25;5.38;;;3.40;;
30420;SDS011;17218;54.070;10.012;2023-07-13T00:16:53;4.15;;;3.22;;
30420;SDS011;17218;54.070;10.012;2023-07-13T00:19:21;5.13;;;3.30;;
30420;SDS011;17218;54.070;10.012;2023-07-13T00:21:47;6.07;;;3.30;;
30420;SDS011;17218;54.070;10.012;2023-07-13T00:24:15;4.07;;;3.10;;
30420;SDS011;17218;54.070;10.012;2023-07-13T00:26:49;7.55;;;3.15;;
30420;SDS011;17218;54.070;10.012;2023-07-13T00:29:16;5.75;;;2.90;;
30420;SDS011;17218;54.070;10.012;2023-07-13T00:31:43;9.90;;;2.90;;
30420;SDS011;17218;54.070;10.012;2023-07-13T00:34:09;6.15;;;3.38;;
30420;SDS011;17218;54.070;10.012;2023-07-13T00:36:36;4.60;;;3.22;;
30420;SDS011;17218;54.070;10.012;2023-07-13T00:39:03;4.45;;;3.00;;
30420;SDS011;17218;54.070;10.012;2023-07-13T00:41:30;5.60;;;3.10;;
30420;SDS011;17218;54.070;10.012;2023-07-13T00:43:58;3.65;;;2.60;;
30420;SDS011;17218;54.070;10.012;2023-07-13T00:46:25;5.07;;;3.17;;
30420;SDS011;17218;54.070;10.012;2023-07-13T00:48:54;3.13;;;2.80;;
30420;SDS011;17218;54.070;10.012;2023-07-13T00:51:25;3.17;;;2.67;;
30420;SDS011;17218;54.070;10.012;2023-07-13T00:53:59;4.53;;;3.35;;
30420;SDS011;17218;54.070;10.012;2023-07-13T00:56:28;3.22;;;2.70;;
30420;SDS011;17218;54.070;10.012;2023-07-13T00:58:55;5.43;;;2.88;;
30420;SDS011;17218;54.070;10.012;2023-07-13T01:01:25;5.93;;;2.60;;
30420;SDS011;17218;54.070;10.012;2023-07-13T01:03:52;6.10;;;3.30;;
30420;SDS011;17218;54.070;10.012;2023-07-13T01:06:19;4.53;;;2.92;;
30420;SDS011;17218;54.070;10.012;2023-07-13T01:08:45;5.00;;;2.80;;
30420;SDS011;17218;54.070;10.012;2023-07-13T01:11:12;4.72;;;3.33;;
30420;SDS011;17218;54.070;10.012;2023-07-13T01:13:45;5.38;;;3.30;;
30420;SDS011;17218;54.070;10.012;2023-07-13T01:16:13;3.92;;;2.88;;
30420;SDS011;17218;54.070;10.012;2023-07-13T01:18:46;3.95;;;3.42;;
30420;SDS011;17218;54.070;10.012;2023-07-13T01:21:14;5.53;;;3.25;;
30420;SDS011;17218;54.070;10.012;2023-07-13T01:23:41;5.43;;;3.40;;
30420;SDS011;17218;54.070;10.012;2023-07-13T01:26:09;6.97;;;3.38;;
30420;SDS011;17218;54.070;10.012;2023-07-13T01:28:35;7.20;;;3.80;;
30420;SDS011;17218;54.070;10.012;2023-07-13T01:31:03;5.97;;;3.25;;
30420;SDS011;17218;54.070;10.012;2023-07-13T01:33:29;6.95;;;3.15;;
30420;SDS011;17218;54.070;10.012;2023-07-13T01:35:56;4.82;;;2.97;;
30420;SDS011;17218;54.070;10.012;2023-07-13T01:38:24;5.13;;;2.72;;
30420;SDS011;17218;54.070;10.012;2023-07-13T01:40:51;4.78;;;3.13;;
30420;SDS011;17218;54.070;10.012;2023-07-13T01:43:18;3.30;;;2.75;;
30420;SDS011;17218;54.070;10.012;2023-07-13T01:45:45;5.90;;;2.67;;
30420;SDS011;17218;54.070;10.012;2023-07-13T01:48:12;5.18;;;2.63;;
30420;SDS011;17218;54.070;10.012;2023-07-13T01:50:38;6.38;;;2.92;;
30420;SDS011;17218;54.070;10.012;2023-07-13T01:53:05;4.72;;;3.30;;
30420;SDS011;17218;54.070;10.012;2023-07-13T01:55:33;3.63;;;2.22;;
30420;SDS011;17218;54.070;10.012;2023-07-13T01:58:00;5.70;;;2.60;;
30420;SDS011;17218;54.070;10.012;2023-07-13T02:00:27;4.25;;;2.63;;
30420;SDS011;17218;54.070;10.012;2023-07-13T02:02:54;4.30;;;2.38;;
30420;SDS011;17218;54.070;10.012;2023-07-13T02:05:20;4.35;;;2.83;;
30420;SDS011;17218;54.070;10.012;2023-07-13T02:07:47;3.13;;;2.15;;
30420;SDS011;17218;54.070;10.012;2023-07-13T02:10:14;2.50;;;2.13;;
30420;SDS011;17218;54.070;10.012;2023-07-13T02:12:42;8.13;;;2.60;;
30420;SDS011;17218;54.070;10.012;2023-07-13T02:15:09;6.85;;;3.65;;
30420;SDS011;17218;54.070;10.012;2023-07-13T02:17:36;3.78;;;2.35;;
30420;SDS011;17218;54.070;10.012;2023-07-13T02:20:03;5.80;;;2.25;;
30420;SDS011;17218;54.070;10.012;2023-07-13T02:22:31;5.30;;;2.90;;
30420;SDS011;17218;54.070;10.012;2023-07-13T02:24:57;6.03;;;2.78;;
30420;SDS011;17218;54.070;10.012;2023-07-13T02:27:24;5.30;;;3.00;;
30420;SDS011;17218;54.070;10.012;2023-07-13T02:29:52;5.65;;;2.83;;
30420;SDS011;17218;54.070;10.012;2023-07-13T02:32:19;7.40;;;3.33;;
30420;SDS011;17218;54.070;10.012;2023-07-13T02:34:45;6.53;;;2.90;;
30420;SDS011;17218;54.070;10.012;2023-07-13T02:37:12;3.83;;;2.70;;
30420;SDS011;17218;54.070;10.012;2023-07-13T02:39:38;3.30;;;2.97;;
30420;SDS011;17218;54.070;10.012;2023-07-13T02:42:05;3.83;;;2.97;;
30420;SDS011;17218;54.070;10.012;2023-07-13T02:44:32;4.95;;;2.88;;
30420;SDS011;17218;54.070;10.012;2023-07-13T02:47:00;3.67;;;3.20;;
30420;SDS011;17218;54.070;10.012;2023-07-13T02:49:26;6.43;;;3.20;;
30420;SDS011;17218;54.070;10.012;2023-07-13T02:51:53;6.25;;;3.30;;
30420;SDS011;17218;54.070;10.012;2023-07-13T02:54:19;6.05;;;3.08;;
30420;SDS011;17218;54.070;10.012;2023-07-13T02:56:46;7.20;;;3.83;;
30420;SDS011;17218;54.070;10.012;2023-07-13T02:59:12;5.53;;;3.55;;
30420;SDS011;17218;54.070;10.012;2023-07-13T03:01:39;5.15;;;3.65;;
30420;SDS011;17218;54.070;10.012;2023-07-13T03:04:07;5.72;;;3.72;;
30420;SDS011;17218;54.070;10.012;2023-07-13T03:06:34;7.57;;;4.20;;
30420;SDS011;17218;54.070;10.012;2023-07-13T03:09:00;6.10;;;4.22;;
30420;SDS011;17218;54.070;10.012;2023-07-13T03:11:29;6.20;;;4.43;;
30420;SDS011;17218;54.070;10.012;2023-07-13T03:13:56;6.32;;;4.28;;
30420;SDS011;17218;54.070;10.012;2023-07-13T03:16:23;8.30;;;4.88;;
30420;SDS011;17218;54.070;10.012;2023-07-13T03:18:49;11.25;;;4.47;;
30420;SDS011;17218;54.070;10.012;2023-07-13T03:21:17;5.90;;;4.53;;
30420;SDS011;17218;54.070;10.012;2023-07-13T03:23:43;4.80;;;4.25;;
30420;SDS011;17218;54.070;10.012;2023-07-13T03:26:11;7.65;;;4.78;;
30420;SDS011;17218;54.070;10.012;2023-07-13T03:28:39;9.23;;;4.97;;
30420;SDS011;17218;54.070;10.012;2023-07-13T03:31:07;5.90;;;4.75;;
30420;SDS011;17218;54.070;10.012;2023-07-13T03:33:35;6.78;;;4.82;;
30420;SDS011;17218;54.070;10.012;2023-07-13T03:36:03;7.95;;;4.95;;
30420;SDS011;17218;54.070;10.012;2023-07-13T03:38:31;6.88;;;5.07;;
30420;SDS011;17218;54.070;10.012;2023-07-13T03:40:58;7.43;;;5.43;;
30420;SDS011;17218;54.070;10.012;2023-07-13T03:43:25;6.75;;;5.60;;
30420;SDS011;17218;54.070;10.012;2023-07-13T03:45:52;5.70;;;4.95;;
30420;SDS011;17218;54.070;10.012;2023-07-13T03:48:19;6.93;;;5.18;;
30420;SDS011;17218;54.070;10.012;2023-07-13T03:50:46;10.63;;;5.25;;
30420;SDS011;17218;54.070;10.012;2023-07-13T03:53:14;7.97;;;5.43;;
30420;SDS011;17218;54.070;10.012;2023-07-13T03:55:42;6.88;;;4.82;;
30420;SDS011;17218;54.070;10.012;2023-07-13T03:58:28;9.73;;;5.40;;
30420;SDS011;17218;54.070;10.012;2023-07-13T04:00:57;6.28;;;5.20;;
30420;SDS011;17218;54.070;10.012;2023-07-13T04:03:24;6.07;;;5.47;;
30420;SDS011;17218;54.070;10.012;2023-07-13T04:05:53;9.38;;;5.40;;
30420;SDS011;17218;54.070;10.012;2023-07-13T04:08:19;8.95;;;5.15;;
30420;SDS011;17218;54.070;10.012;2023-07-13T04:10:47;6.80;;;5.57;;
30420;SDS011;17218;54.070;10.012;2023-07-13T04:13:13;6.05;;;4.88;;
30420;SDS011;17218;54.070;10.012;2023-07-13T04:15:40;5.47;;;4.97;;
30420;SDS011;17218;54.070;10.012;2023-07-13T04:18:06;6.20;;;4.70;;
30420;SDS011;17218;54.070;10.012;2023-07-13T04:20:34;8.02;;;5.20;;
30420;SDS011;17218;54.070;10.012;2023-07-13T04:23:00;10.75;;;5.72;;
30420;SDS011;17218;54.070;10.012;2023-07-13T04:25:27;12.35;;;5.70;;
30420;SDS011;17218;54.070;10.012;2023-07-13T04:27:55;7.05;;;5.10;;
30420;SDS011;17218;54.070;10.012;2023-07-13T04:30:22;6.90;;;5.22;;
30420;SDS011;17218;54.070;10.012;2023-07-13T04:32:51;7.53;;;5.25;;
30420;SDS011;17218;54.070;10.012;2023-07-13T04:35:18;8.68;;;5.10;;
30420;SDS011;17218;54.070;10.012;2023-07-13T04:37:45;8.30;;;5.28;;
30420;SDS011;17218;54.070;10.012;2023-07-13T04:40:12;7.78;;;4.75;;
30420;SDS011;17218;54.070;10.012;2023-07-13T04:42:38;7.10;;;5.47;;
30420;SDS011;17218;54.070;10.012;2023-07-13T04:45:07;6.40;;;4.50;;
30420;SDS011;17218;54.070;10.012;2023-07-13T04:47:34;6.50;;;4.80;;
30420;SDS011;17218;54.070;10.012;2023-07-13T04:50:00;7.32;;;4.97;;
30420;SDS011;17218;54.070;10.012;2023-07-13T04:52:27;7.03;;;4.57;;
30420;SDS011;17218;54.070;10.012;2023-07-13T04:54:53;7.80;;;4.88;;
30420;SDS011;17218;54.070;10.012;2023-07-13T04:57:20;7.20;;;4.85;;
30420;SDS011;17218;54.070;10.012;2023-07-13T04:59:46;7.95;;;4.32;;
30420;SDS011;17218;54.070;10.012;2023-07-13T05:02:14;7.38;;;4.85;;
30420;SDS011;17218;54.070;10.012;2023-07-13T05:04:41;8.52;;;4.55;;
30420;SDS011;17218;54.070;10.012;2023-07-13T05:07:07;6.40;;;5.32;;
30420;SDS011;17218;54.070;10.012;2023-07-13T05:09:33;4.93;;;4.40;;
30420;SDS011;17218;54.070;10.012;2023-07-13T05:12:00;7.57;;;4.30;;
30420;SDS011;17218;54.070;10.012;2023-07-13T05:14:26;5.20;;;4.03;;
30420;SDS011;17218;54.070;10.012;2023-07-13T05:16:53;8.90;;;4.57;;
30420;SDS011;17218;54.070;10.012;2023-07-13T05:19:21;6.55;;;4.40;;
30420;SDS011;17218;54.070;10.012;2023-07-13T05:21:47;7.57;;;4.10;;
30420;SDS011;17218;54.070;10.012;2023-07-13T05:24:13;6.93;;;4.57;;
30420;SDS011;17218;54.070;10.012;2023-07-13T05:26:40;8.05;;;4.03;;
30420;SDS011;17218;54.070;10.012;2023-07-13T05:29:06;5.07;;;3.78;;
30420;SDS011;17218;54.070;10.012;2023-07-13T05:31:33;5.47;;;3.85;;
30420;SDS011;17218;54.070;10.012;2023-07-13T05:33:59;11.02;;;4.40;;
30420;SDS011;17218;54.070;10.012;2023-07-13T05:36:27;9.63;;;3.78;;
30420;SDS011;17218;54.070;10.012;2023-07-13T05:38:53;9.18;;;3.47;;
30420;SDS011;17218;54.070;10.012;2023-07-13T05:41:20;6.07;;;3.70;;
30420;SDS011;17218;54.070;10.012;2023-07-13T05:43:46;8.95;;;4.00;;
30420;SDS011;17218;54.070;10.012;2023-07-13T05:46:13;8.90;;;4.10;;
30420;SDS011;17218;54.070;10.012;2023-07-13T05:48:39;7.40;;;3.63;;
30420;SDS011;17218;54.070;10.012;2023-07-13T05:51:06;6.32;;;3.17;;
30420;SDS011;17218;54.070;10.012;2023-07-13T05:53:34;8.75;;;3.90;;
30420;SDS011;17218;54.070;10.012;2023-07-13T05:56:00;6.88;;;3.85;;
30420;SDS011;17218;54.070;10.012;2023-07-13T05:58:27;8.95;;;3.80;;
30420;SDS011;17218;54.070;10.012;2023-07-13T06:00:58;10.35;;;4.00;;
30420;SDS011;17218;54.070;10.012;2023-07-13T06:03:26;5.25;;;3.30;;
30420;SDS011;17218;54.070;10.012;2023-07-13T06:05:53;9.90;;;3.72;;
30420;SDS011;17218;54.070;10.012;2023-07-13T06:08:20;11.63;;;3.78;;
30420;SDS011;17218;54.070;10.012;2023-07-13T06:10:48;12.75;;;4.78;;
30420;SDS011;17218;54.070;10.012;2023-07-13T06:13:14;8.90;;;4.22;;
30420;SDS011;17218;54.070;10.012;2023-07-13T06:15:41;12.02;;;4.57;;
30420;SDS011;17218;54.070;10.012;2023-07-13T06:18:07;10.48;;;3.70;;
30420;SDS011;17218;54.070;10.012;2023-07-13T06:20:34;10.23;;;3.92;;
30420;SDS011;17218;54.070;10.012;2023-07-13T06:23:01;8.10;;;4.03;;
30420;SDS011;17218;54.070;10.012;2023-07-13T06:25:27;7.45;;;4.00;;
30420;SDS011;17218;54.070;10.012;2023-07-13T06:27:55;10.27;;;4.10;;
30420;SDS011;17218;54.070;10.012;2023-07-13T06:30:22;12.27;;;3.80;;
30420;SDS011;17218;54.070;10.012;2023-07-13T06:32:48;13.15;;;3.65;;
30420;SDS011;17218;54.070;10.012;2023-07-13T06:35:15;7.75;;;3.90;;
30420;SDS011;17218;54.070;10.012;2023-07-13T06:37:41;12.52;;;4.53;;
30420;SDS011;17218;54.070;10.012;2023-07-13T06:40:08;8.20;;;3.85;;
30420;SDS011;17218;54.070;10.012;2023-07-13T06:42:35;9.75;;;3.40;;
30420;SDS011;17218;54.070;10.012;2023-07-13T06:45:05;8.15;;;3.25;;
30420;SDS011;17218;54.070;10.012;2023-07-13T06:47:32;11.88;;;4.32;;
30420;SDS011;17218;54.070;10.012;2023-07-13T06:49:58;6.85;;;3.50;;
30420;SDS011;17218;54.070;10.012;2023-07-13T06:52:26;10.60;;;3.78;;
30420;SDS011;17218;54.070;10.012;2023-07-13T06:54:52;8.45;;;3.60;;
30420;SDS011;17218;54.070;10.012;2023-07-13T06:57:19;9.75;;;3.72;;
30420;SDS011;17218;54.070;10.012;2023-07-13T06:59:45;9.90;;;3.35;;
30420;SDS011;17218;54.070;10.012;2023-07-13T07:02:13;6.60;;;3.17;;
30420;SDS011;17218;54.070;10.012;2023-07-13T07:04:40;6.57;;;2.70;;
30420;SDS011;17218;54.070;10.012;2023-07-13T07:07:06;8.80;;;3.35;;
30420;SDS011;17218;54.070;10.012;2023-07-13T07:09:33;10.27;;;3.10;;
30420;SDS011;17218;54.070;10.012;2023-07-13T07:11:59;6.78;;;2.83;;
30420;SDS011;17218;54.070;10.012;2023-07-13T07:14:25;13.50;;;3.25;;
30420;SDS011;17218;54.070;10.012;2023-07-13T07:16:52;8.90;;;2.55;;
30420;SDS011;17218;54.070;10.012;2023-07-13T07:19:20;10.70;;;2.75;;
30420;SDS011;17218;54.070;10.012;2023-07-13T07:21:46;9.30;;;2.90;;
30420;SDS011;17218;54.070;10.012;2023-07-13T07:24:13;8.65;;;3.05;;
30420;SDS011;17218;54.070;10.012;2023-07-13T07:26:40;9.10;;;2.88;;
30420;SDS011;17218;54.070;10.012;2023-07-13T07:29:13;10.18;;;3.35;;
30420;SDS011;17218;54.070;10.012;2023-07-13T07:31:39;7.68;;;3.00;;
30420;SDS011;17218;54.070;10.012;2023-07-13T07:34:05;9.80;;;2.72;;
30420;SDS011;17218;54.070;10.012;2023-07-13T07:36:33;7.72;;;2.45;;
30420;SDS011;17218;54.070;10.012;2023-07-13T07:39:00;5.97;;;2.50;;
30420;SDS011;17218;54.070;10.012;2023-07-13T07:41:26;5.68;;;2.42;;
30420;SDS011;17218;54.070;10.012;2023-07-13T07:43:53;8.13;;;3.10;;
30420;SDS011;17218;54.070;10.012;2023-07-13T07:46:19;7.10;;;2.30;;
30420;SDS011;17218;54.070;10.012;2023-07-13T07:48:46;6.30;;;2.50;;
30420;SDS011;17218;54.070;10.012;2023-07-13T07:51:12;6.47;;;2.60;;
30420;SDS011;17218;54.070;10.012;2023-07-13T07:53:40;7.53;;;2.50;;
30420;SDS011;17218;54.070;10.012;2023-07-13T07:56:06;8.30;;;2.63;;
30420;SDS011;17218;54.070;10.012;2023-07-13T07:58:33;7.93;;;2.53;;
30420;SDS011;17218;54.070;10.012;2023-07-13T08:01:03;6.32;;;2.58;;
30420;SDS011;17218;54.070;10.012;2023-07-13T08:03:30;6.00;;;1.90;;
30420;SDS011;17218;54.070;10.012;2023-07-13T08:05:57;3.80;;;1.90;;
30420;SDS011;17218;54.070;10.012;2023-07-13T08:08:24;4.72;;;1.67;;
30420;SDS011;17218;54.070;10.012;2023-07-13T08:10:52;7.78;;;1.90;;
30420;SDS011;17218;54.070;10.012;2023-07-13T08:13:19;8.60;;;1.75;;
30420;SDS011;17218;54.070;10.012;2023-07-13T08:15:45;9.18;;;1.75;;
30420;SDS011;17218;54.070;10.012;2023-07-13T08:18:13;5.63;;;2.15;;
30420;SDS011;17218;54.070;10.012;2023-07-13T08:20:40;4.88;;;2.10;;
30420;SDS011;17218;54.070;10.012;2023-07-13T08:23:07;3.60;;;1.80;;
30420;SDS011;17218;54.070;10.012;2023-07-13T08:25:36;7.82;;;2.40;;
30420;SDS011;17218;54.070;10.012;2023-07-13T08:28:03;4.22;;;1.60;;
30420;SDS011;17218;54.070;10.012;2023-07-13T08:30:30;3.45;;;1.40;;
30420;SDS011;17218;54.070;10.012;2023-07-13T08:32:56;3.90;;;1.70;;
30420;SDS011;17218;54.070;10.012;2023-07-13T08:35:23;2.97;;;1.67;;
30420;SDS011;17218;54.070;10.012;2023-07-13T08:37:50;3.45;;;1.88;;
30420;SDS011;17218;54.070;10.012;2023-07-13T08:40:17;6.10;;;2.78;;
30420;SDS011;17218;54.070;10.012;2023-07-13T08:42:50;4.45;;;1.45;;
30420;SDS011;17218;54.070;10.012;2023-07-13T08:45:22;5.00;;;1.60;;
30420;SDS011;17218;54.070;10.012;2023-07-13T08:47:52;6.10;;;2.05;;
30420;SDS011;17218;54.070;10.012;2023-07-13T08:50:23;5.50;;;1.73;;
30420;SDS011;17218;54.070;10.012;2023-07-13T08:52:53;3.38;;;1.77;;
30420;SDS011;17218;54.070;10.012;2023-07-13T08:55:23;4.85;;;1.80;;
30420;SDS011;17218;54.070;10.012;2023-07-13T08:57:54;3.83;;;1.52;;
30420;SDS011;17218;54.070;10.012;2023-07-13T09:00:37;5.68;;;1.88;;
30420;SDS011;17218;54.070;10.012;2023-07-13T09:03:12;2.92;;;1.80;;
30420;SDS011;17218;54.070;10.012;2023-07-13T09:05:47;4.07;;;1.55;;
30420;SDS011;17218;54.070;10.012;2023-07-13T09:08:31;5.53;;;1.58;;
30420;SDS011;17218;54.070;10.012;2023-07-13T09:11:07;3.20;;;1.40;;
30420;SDS011;17218;54.070;10.012;2023-07-13T09:13:49;3.28;;;1.52;;
30420;SDS011;17218;54.070;10.012;2023-07-13T09:16:25;3.47;;;2.05;;
30420;SDS011;17218;54.070;10.012;2023-07-13T09:18:53;4.57;;;2.38;;
30420;SDS011;17218;54.070;10.012;2023-07-13T09:21:28;5.40;;;1.92;;
30420;SDS011;17218;54.070;10.012;2023-07-13T09:27:01;6.03;;;2.03;;
30420;SDS011;17218;54.070;10.012;2023-07-13T09:29:35;5.95;;;1.67;;
30420;SDS011;17218;54.070;10.012;2023-07-13T09:32:10;5.40;;;1.92;;
30420;SDS011;17218;54.070;10.012;2023-07-13T09:34:40;3.28;;;1.80;;
30420;SDS011;17218;54.070;10.012;2023-07-13T09:37:07;3.97;;;1.83;;
30420;SDS011;17218;54.070;10.012;2023-07-13T09:39:35;6.47;;;1.70;;
30420;SDS011;17218;54.070;10.012;2023-07-13T09:42:06;6.38;;;1.80;;
30420;SDS011;17218;54.070;10.012;2023-07-13T09:44:44;3.88;;;2.08;;
30420;SDS011;17218;54.070;10.012;2023-07-13T09:47:20;8.68;;;2.58;;
30420;SDS011;17218;54.070;10.012;2023-07-13T09:49:49;6.97;;;1.67;;
30420;SDS011;17218;54.070;10.012;2023-07-13T09:52:21;4.97;;;2.30;;
30420;SDS011;17218;54.070;10.012;2023-07-13T09:54:50;4.95;;;1.95;;
30420;SDS011;17218;54.070;10.012;2023-07-13T09:57:22;5.07;;;2.63;;
30420;SDS011;17218;54.070;10.012;2023-07-13T09:59:51;4.75;;;2.00;;
30420;SDS011;17218;54.070;10.012;2023-07-13T10:02:27;4.15;;;1.80;;
30420;SDS011;17218;54.070;10.012;2023-07-13T10:04:58;3.65;;;1.70;;
30420;SDS011;17218;54.070;10.012;2023-07-13T10:07:28;5.15;;;1.92;;
30420;SDS011;17218;54.070;10.012;2023-07-13T10:09:56;4.32;;;1.38;;
30420;SDS011;17218;54.070;10.012;2023-07-13T10:12:26;3.15;;;1.60;;
30420;SDS011;17218;54.070;10.012;2023-07-13T10:14:54;2.83;;;1.40;;
30420;SDS011;17218;54.070;10.012;2023-07-13T10:17:26;3.22;;;1.40;;
30420;SDS011;17218;54.070;10.012;2023-07-13T10:19:57;5.53;;;1.85;;
30420;SDS011;17218;54.070;10.012;2023-07-13T10:22:31;3.97;;;1.63;;
30420;SDS011;17218;54.070;10.012;2023-07-13T10:25:11;3.13;;;1.38;;
30420;SDS011;17218;54.070;10.012;2023-07-13T10:27:41;4.07;;;1.65;;
30420;SDS011;17218;54.070;10.012;2023-07-13T10:30:09;4.47;;;1.30;;
30420;SDS011;17218;54.070;10.012;2023-07-13T10:32:42;4.45;;;1.67;;
30420;SDS011;17218;54.070;10.012;2023-07-13T10:35:09;2.00;;;1.15;;
30420;SDS011;17218;54.070;10.012;2023-07-13T10:37:41;3.47;;;1.40;;
30420;SDS011;17218;54.070;10.012;2023-07-13T10:40:13;3.88;;;1.15;;
30420;SDS011;17218;54.070;10.012;2023-07-13T10:42:43;3.45;;;1.50;;
30420;SDS011;17218;54.070;10.012;2023-07-13T10:45:13;1.50;;;0.82;;
30420;SDS011;17218;54.070;10.012;2023-07-13T10:47:42;1.63;;;0.80;;
30420;SDS011;17218;54.070;10.012;2023-07-13T10:50:13;2.28;;;0.73;;
30420;SDS011;17218;54.070;10.012;2023-07-13T10:52:45;1.65;;;0.65;;
30420;SDS011;17218;54.070;10.012;2023-07-13T10:55:31;3.08;;;0.70;;
30420;SDS011;17218;54.070;10.012;2023-07-13T10:58:02;1.10;;;0.60;;
30420;SDS011;17218;54.070;10.012;2023-07-13T11:00:42;2.03;;;0.73;;
30420;SDS011;17218;54.070;10.012;2023-07-13T11:03:15;0.63;;;0.60;;
30420;SDS011;17218;54.070;10.012;2023-07-13T11:05:44;0.88;;;0.50;;
30420;SDS011;17218;54.070;10.012;2023-07-13T11:08:18;1.95;;;0.60;;
30420;SDS011;17218;54.070;10.012;2023-07-13T11:10:49;1.65;;;0.57;;
30420;SDS011;17218;54.070;10.012;2023-07-13T11:13:35;1.75;;;0.70;;
30420;SDS011;17218;54.070;10.012;2023-07-13T11:16:12;1.73;;;0.80;;
30420;SDS011;17218;54.070;10.012;2023-07-13T11:18:41;1.63;;;0.80;;
30420;SDS011;17218;54.070;10.012;2023-07-13T11:21:15;2.95;;;0.98;;
30420;SDS011;17218;54.070;10.012;2023-07-13T11:23:43;1.88;;;0.80;;
30420;SDS011;17218;54.070;10.012;2023-07-13T11:29:07;2.72;;;0.90;;
30420;SDS011;17218;54.070;10.012;2023-07-13T11:31:36;2.45;;;0.82;;
30420;SDS011;17218;54.070;10.012;2023-07-13T11:34:06;3.08;;;0.85;;
30420;SDS011;17218;54.070;10.012;2023-07-13T11:36:42;3.72;;;1.20;;
30420;SDS011;17218;54.070;10.012;2023-07-13T11:39:12;5.65;;;1.30;;
30420;SDS011;17218;54.070;10.012;2023-07-13T11:41:45;2.80;;;0.95;;
30420;SDS011;17218;54.070;10.012;2023-07-13T11:44:17;3.00;;;1.27;;
30420;SDS011;17218;54.070;10.012;2023-07-13T11:46:46;2.78;;;0.88;;
30420;SDS011;17218;54.070;10.012;2023-07-13T11:49:19;2.08;;;0.90;;
30420;SDS011;17218;54.070;10.012;2023-07-13T11:51:46;4.13;;;1.05;;
30420;SDS011;17218;54.070;10.012;2023-07-13T11:54:23;4.80;;;1.17;;
30420;SDS011;17218;54.070;10.012;2023-07-13T11:56:52;6.05;;;1.30;;
30420;SDS011;17218;54.070;10.012;2023-07-13T11:59:20;5.07;;;1.50;;
30420;SDS011;17218;54.070;10.012;2023-07-13T12:01:53;2.15;;;0.98;;
30420;SDS011;17218;54.070;10.012;2023-07-13T12:04:24;3.35;;;1.15;;
30420;SDS011;17218;54.070;10.012;2023-07-13T12:06:57;3.33;;;1.30;;
30420;SDS011;17218;54.070;10.012;2023-07-13T12:09:26;1.15;;;0.70;;
30420;SDS011;17218;54.070;10.012;2023-07-13T12:11:56;4.50;;;1.15;;
30420;SDS011;17218;54.070;10.012;2023-07-13T12:14:23;4.03;;;0.93;;
30420;SDS011;17218;54.070;10.012;2023-07-13T12:16:51;4.78;;;0.95;;
30420;SDS011;17218;54.070;10.012;2023-07-13T12:19:20;2.10;;;0.90;;
30420;SDS011;17218;54.070;10.012;2023-07-13T12:21:50;2.50;;;0.80;;
30420;SDS011;17218;54.070;10.012;2023-07-13T12:24:20;1.77;;;1.08;;
30420;SDS011;17218;54.070;10.012;2023-07-13T12:26:51;3.90;;;1.52;;
30420;SDS011;17218;54.070;10.012;2023-07-13T12:29:19;3.17;;;1.35;;
30420;SDS011;17218;54.070;10.012;2023-07-13T12:31:46;1.45;;;1.15;;
30420;SDS011;17218;54.070;10.012;2023-07-13T12:34:15;2.58;;;1.00;;
30420;SDS011;17218;54.070;10.012;2023-07-13T12:36:45;1.65;;;0.90;;
30420;SDS011;17218;54.070;10.012;2023-07-13T12:39:16;5.40;;;1.23;;
30420;SDS011;17218;54.070;10.012;2023-07-13T12:41:46;1.67;;;0.93;;
30420;SDS011;17218;54.070;10.012;2023-07-13T12:44:14;3.63;;;0.90;;
30420;SDS011;17218;54.070;10.012;2023-07-13T12:46:50;3.40;;;0.90;;
30420;SDS011;17218;54.070;10.012;2023-07-13T12:49:18;2.83;;;0.93;;
30420;SDS011;17218;54.070;10.012;2023-07-13T12:51:50;4.00;;;1.08;;
30420;SDS011;17218;54.070;10.012;2023-07-13T12:54:23;1.38;;;0.98;;
30420;SDS011;17218;54.070;10.012;2023-07-13T12:56:49;3.10;;;1.00;;
30420;SDS011;17218;54.070;10.012;2023-07-13T12:59:20;1.67;;;0.95;;
30420;SDS011;17218;54.070;10.012;2023-07-13T13:01:48;1.60;;;0.93;;
30420;SDS011;17218;54.070;10.012;2023-07-13T13:04:16;4.60;;;0.88;;
30420;SDS011;17218;54.070;10.012;2023-07-13T13:06:46;3.45;;;0.90;;
30420;SDS011;17218;54.070;10.012;2023-07-13T13:09:13;1.23;;;0.70;;
30420;SDS011;17218;54.070;10.012;2023-07-13T13:11:44;2.30;;;0.80;;
30420;SDS011;17218;54.070;10.012;2023-07-13T13:14:11;1.83;;;0.93;;
30420;SDS011;17218;54.070;10.012;2023-07-13T13:16:40;2.85;;;0.95;;
30420;SDS011;17218;54.070;10.012;2023-07-13T13:19:14;1.95;;;1.02;;
30420;SDS011;17218;54.070;10.012;2023-07-13T13:21:43;2.80;;;0.88;;
30420;SDS011;17218;54.070;10.012;2023-07-13T13:24:11;2.72;;;1.02;;
30420;SDS011;17218;54.070;10.012;2023-07-13T13:26:39;2.40;;;1.00;;
30420;SDS011;17218;54.070;10.012;2023-07-13T13:29:10;2.58;;;1.08;;
30420;SDS011;17218;54.070;10.012;2023-07-13T13:31:40;2.75;;;1.00;;
30420;SDS011;17218;54.070;10.012;2023-07-13T13:34:07;3.85;;;0.90;;
30420;SDS011;17218;54.070;10.012;2023-07-13T13:36:35;3.40;;;1.17;;
30420;SDS011;17218;54.070;10.012;2023-07-13T13:39:02;2.75;;;1.13;;
30420;SDS011;17218;54.070;10.012;2023-07-13T13:41:31;2.70;;;0.95;;
30420;SDS011;17218;54.070;10.012;2023-07-13T13:43:58;4.65;;;1.05;;
30420;SDS011;17218;54.070;10.012;2023-07-13T13:46:25;4.88;;;1.20;;
30420;SDS011;17218;54.070;10.012;2023-07-13T13:48:54;3.28;;;1.00;;
30420;SDS011;17218;54.070;10.012;2023-07-13T13:51:22;5.93;;;1.25;;
30420;SDS011;17218;54.070;10.012;2023-07-13T13:53:50;2.35;;;0.77;;
30420;SDS011;17218;54.070;10.012;2023-07-13T13:56:18;2.35;;;1.00;;
30420;SDS011;17218;54.070;10.012;2023-07-13T13:58:45;3.67;;;1.50;;
30420;SDS011;17218;54.070;10.012;2023-07-13T14:01:12;3.63;;;1.10;;
30420;SDS011;17218;54.070;10.012;2023-07-13T14:03:44;3.10;;;1.40;;
30420;SDS011;17218;54.070;10.012;2023-07-13T14:06:13;4.47;;;1.25;;
30420;SDS011;17218;54.070;10.012;2023-07-13T14:08:41;3.10;;;1.13;;
30420;SDS011;17218;54.070;10.012;2023-07-13T14:11:07;6.85;;;1.40;;
30420;SDS011;17218;54.070;10.012;2023-07-13T14:13:38;2.53;;;1.20;;
30420;SDS011;17218;54.070;10.012;2023-07-13T14:16:09;3.05;;;1.08;;
30420;SDS011;17218;54.070;10.012;2023-07-13T14:18:37;2.60;;;1.10;;
30420;SDS011;17218;54.070;10.012;2023-07-13T14:21:08;3.00;;;1.35;;
30420;SDS011;17218;54.070;10.012;2023-07-13T14:23:37;5.85;;;1.00;;
30420;SDS011;17218;54.070;10.012;2023-07-13T14:26:04;2.88;;;1.13;;
30420;SDS011;17218;54.070;10.012;2023-07-13T14:28:37;2.55;;;0.80;;
30420;SDS011;17218;54.070;10.012;2023-07-13T14:31:07;4.22;;;0.80;;
30420;SDS011;17218;54.070;10.012;2023-07-13T14:33:33;3.05;;;1.17;;
30420;SDS011;17218;54.070;10.012;2023-07-13T14:36:00;3.38;;;1.38;;
30420;SDS011;17218;54.070;10.012;2023-07-13T14:38:28;4.18;;;1.10;;
30420;SDS011;17218;54.070;10.012;2023-07-13T14:40:54;6.65;;;1.55;;
30420;SDS011;17218;54.070;10.012;2023-07-13T14:43:21;3.03;;;1.17;;
30420;SDS011;17218;54.070;10.012;2023-07-13T14:45:50;4.72;;;1.58;;
30420;SDS011;17218;54.070;10.012;2023-07-13T14:48:17;2.55;;;1.15;;